sensor_id;sensor_type;location;lat;lon;timestamp;temperature;humidity
8527;DHT22;4301;48.362;8.478;2022-09-06T00:01:45;14.90;99.90
8527;DHT22;4301;48.362;8.478;2022-09-06T00:04:13;14.70;99.90
8527;DHT22;4301;48.362;8.478;2022-09-06T00:06:41;14.70;99.90
8527;DHT22;4301;48.362;8.478;2022-09-06T00:09:08;14.70;99.90
8527;DHT22;4301;48.362;8.478;2022-09-06T00:11:35;14.70;99.90
8527;DHT22;4301;48.362;8.478;2022-09-06T00:14:03;14.70;99.90
8527;DHT22;4301;48.362;8.478;2022-09-06T00:16:30;14.70;99.90
8527;DHT22;4301;48.362;8.478;2022-09-06T00:18:59;14.70;99.90
8527;DHT22;4301;48.362;8.478;2022-09-06T00:21:28;14.70;99.90
8527;DHT22;4301;48.362;8.478;2022-09-06T00:23:56;14.70;99.90
8527;DHT22;4301;48.362;8.478;2022-09-06T00:26:23;14.70;99.90
8527;DHT22;4301;48.362;8.478;2022-09-06T00:28:51;14.60;99.90
8527;DHT22;4301;48.362;8.478;2022-09-06T00:31:19;14.60;99.90
8527;DHT22;4301;48.362;8.478;2022-09-06T00:33:47;14.70;99.90
8527;DHT22;4301;48.362;8.478;2022-09-06T00:36:16;14.60;99.90
8527;DHT22;4301;48.362;8.478;2022-09-06T00:38:45;14.60;99.90
8527;DHT22;4301;48.362;8.478;2022-09-06T00:41:14;14.60;99.90
8527;DHT22;4301;48.362;8.478;2022-09-06T00:43:42;14.60;99.90
8527;DHT22;4301;48.362;8.478;2022-09-06T00:46:12;14.60;99.90
8527;DHT22;4301;48.362;8.478;2022-09-06T00:48:40;14.60;99.90
8527;DHT22;4301;48.362;8.478;2022-09-06T00:51:10;14.60;99.90
8527;DHT22;4301;48.362;8.478;2022-09-06T00:53:40;14.60;99.90
8527;DHT22;4301;48.362;8.478;2022-09-06T00:56:08;14.70;99.90
8527;DHT22;4301;48.362;8.478;2022-09-06T00:58:36;14.60;99.90
8527;DHT22;4301;48.362;8.478;2022-09-06T01:01:04;14.60;99.90
8527;DHT22;4301;48.362;8.478;2022-09-06T01:03:31;14.60;99.90
8527;DHT22;4301;48.362;8.478;2022-09-06T01:06:08;14.50;99.90
8527;DHT22;4301;48.362;8.478;2022-09-06T01:08:49;14.50;99.90
8527;DHT22;4301;48.362;8.478;2022-09-06T01:11:36;14.50;99.90
8527;DHT22;4301;48.362;8.478;2022-09-06T01:14:14;14.50;99.90
8527;DHT22;4301;48.362;8.478;2022-09-06T01:16:47;14.40;99.90
8527;DHT22;4301;48.362;8.478;2022-09-06T01:19:47;14.50;99.90
8527;DHT22;4301;48.362;8.478;2022-09-06T01:22:37;14.50;99.90
8527;DHT22;4301;48.362;8.478;2022-09-06T01:25:27;14.50;99.90
8527;DHT22;4301;48.362;8.478;2022-09-06T01:28:16;14.50;99.90
8527;DHT22;4301;48.362;8.478;2022-09-06T01:30:52;14.40;99.90
8527;DHT22;4301;48.362;8.478;2022-09-06T01:33:27;14.30;99.90
8527;DHT22;4301;48.362;8.478;2022-09-06T01:36:00;14.20;99.90
8527;DHT22;4301;48.362;8.478;2022-09-06T01:38:28;14.20;99.90
8527;DHT22;4301;48.362;8.478;2022-09-06T01:40:56;14.20;99.90
8527;DHT22;4301;48.362;8.478;2022-09-06T01:43:26;14.30;99.90
8527;DHT22;4301;48.362;8.478;2022-09-06T01:46:00;14.30;99.90
8527;DHT22;4301;48.362;8.478;2022-09-06T01:48:40;14.30;99.90
8527;DHT22;4301;48.362;8.478;2022-09-06T01:51:15;14.20;99.90
8527;DHT22;4301;48.362;8.478;2022-09-06T01:54:02;14.20;99.90
8527;DHT22;4301;48.362;8.478;2022-09-06T01:56:37;14.20;99.90
8527;DHT22;4301;48.362;8.478;2022-09-06T01:59:29;14.20;99.90
8527;DHT22;4301;48.362;8.478;2022-09-06T02:02:02;14.20;99.90
8527;DHT22;4301;48.362;8.478;2022-09-06T02:04:38;14.20;99.90
8527;DHT22;4301;48.362;8.478;2022-09-06T02:07:12;14.10;99.90
8527;DHT22;4301;48.362;8.478;2022-09-06T02:09:44;14.10;99.90
8527;DHT22;4301;48.362;8.478;2022-09-06T02:12:13;14.20;99.90
8527;DHT22;4301;48.362;8.478;2022-09-06T02:14:48;14.30;99.90
8527;DHT22;4301;48.362;8.478;2022-09-06T02:17:20;14.30;99.90
8527;DHT22;4301;48.362;8.478;2022-09-06T02:19:52;14.30;99.90
8527;DHT22;4301;48.362;8.478;2022-09-06T02:22:23;14.30;99.90
8527;DHT22;4301;48.362;8.478;2022-09-06T02:24:53;14.30;99.90
8527;DHT22;4301;48.362;8.478;2022-09-06T02:27:22;14.30;99.90
8527;DHT22;4301;48.362;8.478;2022-09-06T02:29:51;14.30;99.90
8527;DHT22;4301;48.362;8.478;2022-09-06T02:32:20;14.40;99.90
8527;DHT22;4301;48.362;8.478;2022-09-06T02:34:49;14.40;99.90
8527;DHT22;4301;48.362;8.478;2022-09-06T02:37:18;14.40;99.90
8527;DHT22;4301;48.362;8.478;2022-09-06T02:39:45;14.30;99.90
8527;DHT22;4301;48.362;8.478;2022-09-06T02:42:13;14.30;99.90
8527;DHT22;4301;48.362;8.478;2022-09-06T02:44:42;14.40;99.90
8527;DHT22;4301;48.362;8.478;2022-09-06T02:47:11;14.30;99.90
8527;DHT22;4301;48.362;8.478;2022-09-06T02:49:38;14.30;99.90
8527;DHT22;4301;48.362;8.478;2022-09-06T02:52:05;14.20;99.90
8527;DHT22;4301;48.362;8.478;2022-09-06T02:54:32;14.20;99.90
8527;DHT22;4301;48.362;8.478;2022-09-06T02:56:59;14.10;99.90
8527;DHT22;4301;48.362;8.478;2022-09-06T02:59:26;14.00;99.90
8527;DHT22;4301;48.362;8.478;2022-09-06T03:01:54;14.10;99.90
8527;DHT22;4301;48.362;8.478;2022-09-06T03:04:22;14.10;99.90
8527;DHT22;4301;48.362;8.478;2022-09-06T03:06:49;14.10;99.90
8527;DHT22;4301;48.362;8.478;2022-09-06T03:09:16;14.20;99.90
8527;DHT22;4301;48.362;8.478;2022-09-06T03:11:44;14.20;99.90
8527;DHT22;4301;48.362;8.478;2022-09-06T03:14:11;14.10;99.90
8527;DHT22;4301;48.362;8.478;2022-09-06T03:16:38;14.00;99.90
8527;DHT22;4301;48.362;8.478;2022-09-06T03:19:05;14.00;99.90
8527;DHT22;4301;48.362;8.478;2022-09-06T03:21:34;14.00;99.90
8527;DHT22;4301;48.362;8.478;2022-09-06T03:24:01;14.00;99.90
8527;DHT22;4301;48.362;8.478;2022-09-06T03:26:29;14.00;99.90
8527;DHT22;4301;48.362;8.478;2022-09-06T03:28:56;14.00;99.90
8527;DHT22;4301;48.362;8.478;2022-09-06T03:31:23;14.10;99.90
8527;DHT22;4301;48.362;8.478;2022-09-06T03:33:50;14.00;99.90
8527;DHT22;4301;48.362;8.478;2022-09-06T03:36:17;14.00;99.90
8527;DHT22;4301;48.362;8.478;2022-09-06T03:38:46;14.00;99.90
8527;DHT22;4301;48.362;8.478;2022-09-06T03:41:13;14.00;99.90
8527;DHT22;4301;48.362;8.478;2022-09-06T03:43:41;14.00;99.90
8527;DHT22;4301;48.362;8.478;2022-09-06T03:46:08;13.90;99.90
8527;DHT22;4301;48.362;8.478;2022-09-06T03:48:35;13.90;99.90
8527;DHT22;4301;48.362;8.478;2022-09-06T03:51:02;13.90;99.90
8527;DHT22;4301;48.362;8.478;2022-09-06T03:53:30;13.90;99.90
8527;DHT22;4301;48.362;8.478;2022-09-06T03:55:58;13.90;99.90
8527;DHT22;4301;48.362;8.478;2022-09-06T03:58:28;13.90;99.90
8527;DHT22;4301;48.362;8.478;2022-09-06T04:01:01;13.80;99.90
8527;DHT22;4301;48.362;8.478;2022-09-06T04:03:29;13.80;99.90
8527;DHT22;4301;48.362;8.478;2022-09-06T04:05:56;13.80;99.90
8527;DHT22;4301;48.362;8.478;2022-09-06T04:08:23;13.80;99.90
8527;DHT22;4301;48.362;8.478;2022-09-06T04:10:52;13.80;99.90
8527;DHT22;4301;48.362;8.478;2022-09-06T04:13:21;13.80;99.90
8527;DHT22;4301;48.362;8.478;2022-09-06T04:15:49;13.90;99.90
8527;DHT22;4301;48.362;8.478;2022-09-06T04:18:17;13.80;99.90
8527;DHT22;4301;48.362;8.478;2022-09-06T04:20:47;13.70;99.90
8527;DHT22;4301;48.362;8.478;2022-09-06T04:23:14;13.80;99.90
8527;DHT22;4301;48.362;8.478;2022-09-06T04:25:45;13.90;99.90
8527;DHT22;4301;48.362;8.478;2022-09-06T04:28:13;13.80;99.90
8527;DHT22;4301;48.362;8.478;2022-09-06T04:30:44;13.90;99.90
8527;DHT22;4301;48.362;8.478;2022-09-06T04:33:11;13.90;99.90
8527;DHT22;4301;48.362;8.478;2022-09-06T04:35:39;13.90;99.90
8527;DHT22;4301;48.362;8.478;2022-09-06T04:38:06;13.90;99.90
8527;DHT22;4301;48.362;8.478;2022-09-06T04:40:33;13.90;99.90
8527;DHT22;4301;48.362;8.478;2022-09-06T04:43:00;13.90;99.90
8527;DHT22;4301;48.362;8.478;2022-09-06T04:45:27;13.90;99.90
8527;DHT22;4301;48.362;8.478;2022-09-06T04:47:56;13.80;99.90
8527;DHT22;4301;48.362;8.478;2022-09-06T04:50:23;13.80;99.90
8527;DHT22;4301;48.362;8.478;2022-09-06T04:52:51;13.70;99.90
8527;DHT22;4301;48.362;8.478;2022-09-06T04:55:18;13.70;99.90
8527;DHT22;4301;48.362;8.478;2022-09-06T04:57:45;13.60;99.90
8527;DHT22;4301;48.362;8.478;2022-09-06T05:00:13;13.60;99.90
8527;DHT22;4301;48.362;8.478;2022-09-06T05:02:40;13.60;99.90
8527;DHT22;4301;48.362;8.478;2022-09-06T05:05:09;13.60;99.90
8527;DHT22;4301;48.362;8.478;2022-09-06T05:07:36;13.60;99.90
8527;DHT22;4301;48.362;8.478;2022-09-06T05:10:04;13.50;99.90
8527;DHT22;4301;48.362;8.478;2022-09-06T05:12:31;13.50;99.90
8527;DHT22;4301;48.362;8.478;2022-09-06T05:14:59;13.50;99.90
8527;DHT22;4301;48.362;8.478;2022-09-06T05:17:26;13.50;99.90
8527;DHT22;4301;48.362;8.478;2022-09-06T05:19:53;13.60;99.90
8527;DHT22;4301;48.362;8.478;2022-09-06T05:22:22;13.70;99.90
8527;DHT22;4301;48.362;8.478;2022-09-06T05:24:49;13.70;99.90
8527;DHT22;4301;48.362;8.478;2022-09-06T05:27:17;13.70;99.90
8527;DHT22;4301;48.362;8.478;2022-09-06T05:29:44;13.70;99.90
8527;DHT22;4301;48.362;8.478;2022-09-06T05:32:11;13.60;99.90
8527;DHT22;4301;48.362;8.478;2022-09-06T05:34:38;13.60;99.90
8527;DHT22;4301;48.362;8.478;2022-09-06T05:37:05;13.60;99.90
8527;DHT22;4301;48.362;8.478;2022-09-06T05:39:34;13.70;99.90
8527;DHT22;4301;48.362;8.478;2022-09-06T05:42:01;13.80;99.90
8527;DHT22;4301;48.362;8.478;2022-09-06T05:44:32;13.80;99.90
8527;DHT22;4301;48.362;8.478;2022-09-06T05:46:59;13.90;99.90
8527;DHT22;4301;48.362;8.478;2022-09-06T05:49:28;14.00;99.90
8527;DHT22;4301;48.362;8.478;2022-09-06T05:51:55;14.00;99.90
8527;DHT22;4301;48.362;8.478;2022-09-06T05:54:22;14.10;99.90
8527;DHT22;4301;48.362;8.478;2022-09-06T05:56:51;14.20;99.90
8527;DHT22;4301;48.362;8.478;2022-09-06T05:59:18;14.30;99.90
8527;DHT22;4301;48.362;8.478;2022-09-06T06:01:47;14.30;99.90
8527;DHT22;4301;48.362;8.478;2022-09-06T06:04:14;14.40;99.90
8527;DHT22;4301;48.362;8.478;2022-09-06T06:06:43;14.50;99.90
8527;DHT22;4301;48.362;8.478;2022-09-06T06:09:11;14.60;99.90
8527;DHT22;4301;48.362;8.478;2022-09-06T06:11:39;14.80;99.90
8527;DHT22;4301;48.362;8.478;2022-09-06T06:14:08;14.90;99.90
8527;DHT22;4301;48.362;8.478;2022-09-06T06:16:35;15.00;99.90
8527;DHT22;4301;48.362;8.478;2022-09-06T06:19:02;15.20;99.90
8527;DHT22;4301;48.362;8.478;2022-09-06T06:21:31;15.40;99.90
8527;DHT22;4301;48.362;8.478;2022-09-06T06:24:00;15.50;99.90
8527;DHT22;4301;48.362;8.478;2022-09-06T06:26:29;15.70;99.90
8527;DHT22;4301;48.362;8.478;2022-09-06T06:28:57;15.80;99.90
8527;DHT22;4301;48.362;8.478;2022-09-06T06:31:28;16.00;99.90
8527;DHT22;4301;48.362;8.478;2022-09-06T06:33:55;16.10;99.90
8527;DHT22;4301;48.362;8.478;2022-09-06T06:36:24;16.30;99.90
8527;DHT22;4301;48.362;8.478;2022-09-06T06:38:53;16.40;99.90
8527;DHT22;4301;48.362;8.478;2022-09-06T06:41:23;16.50;99.90
8527;DHT22;4301;48.362;8.478;2022-09-06T06:43:51;16.60;99.90
8527;DHT22;4301;48.362;8.478;2022-09-06T06:46:19;16.90;99.90
8527;DHT22;4301;48.362;8.478;2022-09-06T06:48:47;17.10;99.90
8527;DHT22;4301;48.362;8.478;2022-09-06T06:51:16;17.20;99.90
8527;DHT22;4301;48.362;8.478;2022-09-06T06:53:44;17.40;99.90
8527;DHT22;4301;48.362;8.478;2022-09-06T06:56:14;17.60;99.90
8527;DHT22;4301;48.362;8.478;2022-09-06T06:58:41;17.80;99.90
8527;DHT22;4301;48.362;8.478;2022-09-06T07:01:09;17.90;99.90
8527;DHT22;4301;48.362;8.478;2022-09-06T07:03:36;18.10;99.90
8527;DHT22;4301;48.362;8.478;2022-09-06T07:06:05;18.20;99.90
8527;DHT22;4301;48.362;8.478;2022-09-06T07:08:33;18.30;99.90
8527;DHT22;4301;48.362;8.478;2022-09-06T07:11:01;18.50;99.90
8527;DHT22;4301;48.362;8.478;2022-09-06T07:13:29;18.60;99.90
8527;DHT22;4301;48.362;8.478;2022-09-06T07:16:07;18.90;99.90
8527;DHT22;4301;48.362;8.478;2022-09-06T07:18:36;19.30;99.90
8527;DHT22;4301;48.362;8.478;2022-09-06T07:21:09;19.50;99.90
8527;DHT22;4301;48.362;8.478;2022-09-06T07:23:37;19.70;99.90
8527;DHT22;4301;48.362;8.478;2022-09-06T07:26:04;19.80;99.90
8527;DHT22;4301;48.362;8.478;2022-09-06T07:28:32;20.00;99.90
8527;DHT22;4301;48.362;8.478;2022-09-06T07:30:59;20.20;99.90
8527;DHT22;4301;48.362;8.478;2022-09-06T07:33:26;20.40;99.90
8527;DHT22;4301;48.362;8.478;2022-09-06T07:35:58;20.50;99.90
8527;DHT22;4301;48.362;8.478;2022-09-06T07:38:28;20.60;99.90
8527;DHT22;4301;48.362;8.478;2022-09-06T07:40:56;20.80;99.90
8527;DHT22;4301;48.362;8.478;2022-09-06T07:43:24;20.80;99.90
8527;DHT22;4301;48.362;8.478;2022-09-06T07:46:02;20.90;99.90
8527;DHT22;4301;48.362;8.478;2022-09-06T07:48:30;21.00;99.90
8527;DHT22;4301;48.362;8.478;2022-09-06T07:51:05;21.20;99.90
8527;DHT22;4301;48.362;8.478;2022-09-06T07:53:34;21.30;99.90
8527;DHT22;4301;48.362;8.478;2022-09-06T07:56:03;21.50;99.90
8527;DHT22;4301;48.362;8.478;2022-09-06T07:58:31;21.60;99.90
8527;DHT22;4301;48.362;8.478;2022-09-06T08:01:16;21.70;99.90
8527;DHT22;4301;48.362;8.478;2022-09-06T08:03:44;21.80;99.90
8527;DHT22;4301;48.362;8.478;2022-09-06T08:06:12;21.90;99.90
8527;DHT22;4301;48.362;8.478;2022-09-06T08:08:40;21.90;99.90
8527;DHT22;4301;48.362;8.478;2022-09-06T08:11:08;22.00;99.90
8527;DHT22;4301;48.362;8.478;2022-09-06T08:13:35;22.10;99.90
8527;DHT22;4301;48.362;8.478;2022-09-06T08:16:04;22.20;99.90
8527;DHT22;4301;48.362;8.478;2022-09-06T08:18:32;22.20;99.90
8527;DHT22;4301;48.362;8.478;2022-09-06T08:21:08;22.30;99.90
8527;DHT22;4301;48.362;8.478;2022-09-06T08:23:36;22.40;99.90
8527;DHT22;4301;48.362;8.478;2022-09-06T08:26:05;22.50;99.90
8527;DHT22;4301;48.362;8.478;2022-09-06T08:28:32;22.50;99.90
8527;DHT22;4301;48.362;8.478;2022-09-06T08:31:07;22.40;99.90
8527;DHT22;4301;48.362;8.478;2022-09-06T08:33:35;22.30;99.90
8527;DHT22;4301;48.362;8.478;2022-09-06T08:36:03;22.20;99.90
8527;DHT22;4301;48.362;8.478;2022-09-06T08:38:30;22.10;99.90
8527;DHT22;4301;48.362;8.478;2022-09-06T08:41:08;22.10;99.90
8527;DHT22;4301;48.362;8.478;2022-09-06T08:43:36;21.90;99.90
8527;DHT22;4301;48.362;8.478;2022-09-06T08:46:05;21.90;99.90
8527;DHT22;4301;48.362;8.478;2022-09-06T08:48:34;21.80;99.90
8527;DHT22;4301;48.362;8.478;2022-09-06T08:51:19;21.80;99.90
8527;DHT22;4301;48.362;8.478;2022-09-06T08:53:49;21.80;99.90
8527;DHT22;4301;48.362;8.478;2022-09-06T08:56:23;21.80;99.90
8527;DHT22;4301;48.362;8.478;2022-09-06T08:59:01;21.80;99.90
8527;DHT22;4301;48.362;8.478;2022-09-06T09:01:35;21.80;99.90
8527;DHT22;4301;48.362;8.478;2022-09-06T09:04:12;21.60;99.90
8527;DHT22;4301;48.362;8.478;2022-09-06T09:06:41;21.70;99.90
8527;DHT22;4301;48.362;8.478;2022-09-06T09:09:12;21.60;99.90
8527;DHT22;4301;48.362;8.478;2022-09-06T09:11:44;21.40;99.90
8527;DHT22;4301;48.362;8.478;2022-09-06T09:14:15;21.40;99.90
8527;DHT22;4301;48.362;8.478;2022-09-06T09:16:43;21.40;99.90
8527;DHT22;4301;48.362;8.478;2022-09-06T09:19:11;21.50;99.90
8527;DHT22;4301;48.362;8.478;2022-09-06T09:21:39;21.60;99.90
8527;DHT22;4301;48.362;8.478;2022-09-06T09:24:09;21.70;99.90
8527;DHT22;4301;48.362;8.478;2022-09-06T09:26:46;21.90;99.90
8527;DHT22;4301;48.362;8.478;2022-09-06T09:29:14;22.00;99.90
8527;DHT22;4301;48.362;8.478;2022-09-06T09:31:45;22.10;99.90
8527;DHT22;4301;48.362;8.478;2022-09-06T09:34:27;22.30;99.90
8527;DHT22;4301;48.362;8.478;2022-09-06T09:37:10;22.60;99.90
8527;DHT22;4301;48.362;8.478;2022-09-06T09:39:38;22.80;99.90
8527;DHT22;4301;48.362;8.478;2022-09-06T09:42:07;23.00;99.90
8527;DHT22;4301;48.362;8.478;2022-09-06T09:44:36;23.10;99.90
8527;DHT22;4301;48.362;8.478;2022-09-06T09:47:23;23.20;99.90
8527;DHT22;4301;48.362;8.478;2022-09-06T09:49:50;23.10;99.90
8527;DHT22;4301;48.362;8.478;2022-09-06T09:52:23;23.00;99.90
8527;DHT22;4301;48.362;8.478;2022-09-06T09:54:52;22.70;99.90
8527;DHT22;4301;48.362;8.478;2022-09-06T09:57:23;22.50;99.90
8527;DHT22;4301;48.362;8.478;2022-09-06T09:59:51;22.30;99.90
8527;DHT22;4301;48.362;8.478;2022-09-06T10:02:24;22.10;99.90
8527;DHT22;4301;48.362;8.478;2022-09-06T10:04:59;22.10;99.90
8527;DHT22;4301;48.362;8.478;2022-09-06T10:07:27;22.10;99.90
8527;DHT22;4301;48.362;8.478;2022-09-06T10:09:59;22.10;99.90
8527;DHT22;4301;48.362;8.478;2022-09-06T10:12:30;22.10;99.90
8527;DHT22;4301;48.362;8.478;2022-09-06T10:14:58;22.10;99.90
8527;DHT22;4301;48.362;8.478;2022-09-06T10:17:30;22.00;99.90
8527;DHT22;4301;48.362;8.478;2022-09-06T10:20:00;22.00;99.90
8527;DHT22;4301;48.362;8.478;2022-09-06T10:22:29;22.00;99.90
8527;DHT22;4301;48.362;8.478;2022-09-06T10:28:30;21.90;99.90
8527;DHT22;4301;48.362;8.478;2022-09-06T10:34:06;22.10;99.90
8527;DHT22;4301;48.362;8.478;2022-09-06T10:36:37;22.30;99.90
8527;DHT22;4301;48.362;8.478;2022-09-06T10:39:11;22.50;99.90
8527;DHT22;4301;48.362;8.478;2022-09-06T10:41:56;22.90;99.90
8527;DHT22;4301;48.362;8.478;2022-09-06T10:44:37;23.10;99.90
8527;DHT22;4301;48.362;8.478;2022-09-06T10:47:10;23.50;99.90
8527;DHT22;4301;48.362;8.478;2022-09-06T10:49:41;24.00;99.90
8527;DHT22;4301;48.362;8.478;2022-09-06T10:52:13;24.60;99.90
8527;DHT22;4301;48.362;8.478;2022-09-06T10:54:41;25.50;99.90
8527;DHT22;4301;48.362;8.478;2022-09-06T10:57:15;26.90;99.90
8527;DHT22;4301;48.362;8.478;2022-09-06T10:59:48;28.00;99.90
8527;DHT22;4301;48.362;8.478;2022-09-06T11:02:29;28.40;99.90
8527;DHT22;4301;48.362;8.478;2022-09-06T11:05:04;28.50;99.90
8527;DHT22;4301;48.362;8.478;2022-09-06T11:07:36;28.80;99.90
8527;DHT22;4301;48.362;8.478;2022-09-06T11:10:11;29.30;99.90
8527;DHT22;4301;48.362;8.478;2022-09-06T11:12:44;29.30;99.90
8527;DHT22;4301;48.362;8.478;2022-09-06T11:15:16;29.30;99.90
8527;DHT22;4301;48.362;8.478;2022-09-06T11:17:47;29.60;99.90
8527;DHT22;4301;48.362;8.478;2022-09-06T11:20:23;30.60;99.90
8527;DHT22;4301;48.362;8.478;2022-09-06T11:23:04;30.70;99.90
8527;DHT22;4301;48.362;8.478;2022-09-06T11:25:54;31.40;99.90
8527;DHT22;4301;48.362;8.478;2022-09-06T11:28:29;32.20;99.90
8527;DHT22;4301;48.362;8.478;2022-09-06T11:31:02;32.90;99.10
8527;DHT22;4301;48.362;8.478;2022-09-06T11:33:31;32.40;95.20
8527;DHT22;4301;48.362;8.478;2022-09-06T11:36:15;33.00;94.60
8527;DHT22;4301;48.362;8.478;2022-09-06T11:38:53;32.90;91.70
8527;DHT22;4301;48.362;8.478;2022-09-06T11:41:21;33.60;91.50
8527;DHT22;4301;48.362;8.478;2022-09-06T11:43:53;33.30;90.20
8527;DHT22;4301;48.362;8.478;2022-09-06T11:46:59;33.80;86.60
8527;DHT22;4301;48.362;8.478;2022-09-06T11:49:35;33.90;83.70
8527;DHT22;4301;48.362;8.478;2022-09-06T11:55:30;34.40;76.10
8527;DHT22;4301;48.362;8.478;2022-09-06T11:57:59;34.50;71.70
8527;DHT22;4301;48.362;8.478;2022-09-06T12:00:28;34.40;69.30
8527;DHT22;4301;48.362;8.478;2022-09-06T12:02:58;35.00;70.60
8527;DHT22;4301;48.362;8.478;2022-09-06T12:05:28;35.70;69.80
8527;DHT22;4301;48.362;8.478;2022-09-06T12:13:55;34.40;67.30
8527;DHT22;4301;48.362;8.478;2022-09-06T12:16:25;33.40;67.70
8527;DHT22;4301;48.362;8.478;2022-09-06T12:19:41;32.80;69.90
8527;DHT22;4301;48.362;8.478;2022-09-06T12:25:55;32.00;65.30
8527;DHT22;4301;48.362;8.478;2022-09-06T12:28:32;31.70;67.00
8527;DHT22;4301;48.362;8.478;2022-09-06T12:34:11;30.60;66.20
8527;DHT22;4301;48.362;8.478;2022-09-06T12:36:50;30.80;67.00
8527;DHT22;4301;48.362;8.478;2022-09-06T12:39:18;30.30;67.10
8527;DHT22;4301;48.362;8.478;2022-09-06T12:41:49;29.90;69.00
8527;DHT22;4301;48.362;8.478;2022-09-06T12:44:27;29.60;69.70
8527;DHT22;4301;48.362;8.478;2022-09-06T12:47:00;28.90;71.20
8527;DHT22;4301;48.362;8.478;2022-09-06T12:49:28;28.60;72.20
8527;DHT22;4301;48.362;8.478;2022-09-06T12:52:07;28.50;74.00
8527;DHT22;4301;48.362;8.478;2022-09-06T12:54:42;28.40;75.10
8527;DHT22;4301;48.362;8.478;2022-09-06T12:57:16;28.30;76.00
8527;DHT22;4301;48.362;8.478;2022-09-06T12:59:49;28.40;75.80
8527;DHT22;4301;48.362;8.478;2022-09-06T13:02:19;28.60;74.50
8527;DHT22;4301;48.362;8.478;2022-09-06T13:04:50;28.40;76.10
8527;DHT22;4301;48.362;8.478;2022-09-06T13:07:21;28.30;76.50
8527;DHT22;4301;48.362;8.478;2022-09-06T13:09:53;28.50;77.70
8527;DHT22;4301;48.362;8.478;2022-09-06T13:12:25;28.70;78.80
8527;DHT22;4301;48.362;8.478;2022-09-06T13:14:54;28.90;77.10
8527;DHT22;4301;48.362;8.478;2022-09-06T13:17:23;28.90;76.00
8527;DHT22;4301;48.362;8.478;2022-09-06T13:19:51;28.70;77.20
8527;DHT22;4301;48.362;8.478;2022-09-06T13:22:41;28.60;78.10
8527;DHT22;4301;48.362;8.478;2022-09-06T13:25:14;28.70;75.40
8527;DHT22;4301;48.362;8.478;2022-09-06T13:27:42;29.00;76.00
8527;DHT22;4301;48.362;8.478;2022-09-06T13:30:30;29.40;71.50
8527;DHT22;4301;48.362;8.478;2022-09-06T13:32:58;29.40;71.40
8527;DHT22;4301;48.362;8.478;2022-09-06T13:35:28;29.00;69.40
8527;DHT22;4301;48.362;8.478;2022-09-06T13:41:03;28.10;81.10
8527;DHT22;4301;48.362;8.478;2022-09-06T13:43:41;27.50;80.90
8527;DHT22;4301;48.362;8.478;2022-09-06T13:46:09;27.30;84.50
8527;DHT22;4301;48.362;8.478;2022-09-06T13:48:37;27.40;85.70
8527;DHT22;4301;48.362;8.478;2022-09-06T13:51:06;27.50;87.40
8527;DHT22;4301;48.362;8.478;2022-09-06T13:53:34;28.30;86.90
8527;DHT22;4301;48.362;8.478;2022-09-06T13:56:03;28.50;85.20
8527;DHT22;4301;48.362;8.478;2022-09-06T13:58:33;28.00;84.40
8527;DHT22;4301;48.362;8.478;2022-09-06T14:01:00;27.50;85.50
8527;DHT22;4301;48.362;8.478;2022-09-06T14:03:29;27.20;87.00
8527;DHT22;4301;48.362;8.478;2022-09-06T14:05:57;26.90;89.00
8527;DHT22;4301;48.362;8.478;2022-09-06T14:08:25;26.80;91.00
8527;DHT22;4301;48.362;8.478;2022-09-06T14:10:52;26.60;9.80
8527;DHT22;4301;48.362;8.478;2022-09-06T14:13:21;26.60;17.50
8527;DHT22;4301;48.362;8.478;2022-09-06T14:15:49;26.40;9.20
8527;DHT22;4301;48.362;8.478;2022-09-06T14:18:16;26.50;19.30
8527;DHT22;4301;48.362;8.478;2022-09-06T14:20:51;26.50;19.90
8527;DHT22;4301;48.362;8.478;2022-09-06T14:23:18;26.40;17.70
8527;DHT22;4301;48.362;8.478;2022-09-06T14:25:45;26.20;21.30
8527;DHT22;4301;48.362;8.478;2022-09-06T14:28:13;26.00;27.30
8527;DHT22;4301;48.362;8.478;2022-09-06T14:30:41;25.90;28.80
8527;DHT22;4301;48.362;8.478;2022-09-06T14:33:09;25.90;35.30
8527;DHT22;4301;48.362;8.478;2022-09-06T14:35:38;26.10;38.90
8527;DHT22;4301;48.362;8.478;2022-09-06T14:38:06;26.30;34.80
8527;DHT22;4301;48.362;8.478;2022-09-06T14:40:34;27.20;35.60
8527;DHT22;4301;48.362;8.478;2022-09-06T14:43:01;27.30;17.70
8527;DHT22;4301;48.362;8.478;2022-09-06T14:45:29;26.90;17.00
8527;DHT22;4301;48.362;8.478;2022-09-06T14:48:00;26.80;13.70
8527;DHT22;4301;48.362;8.478;2022-09-06T14:50:27;26.90;13.70
8527;DHT22;4301;48.362;8.478;2022-09-06T14:52:56;26.40;21.30
8527;DHT22;4301;48.362;8.478;2022-09-06T14:55:23;26.50;23.00
8527;DHT22;4301;48.362;8.478;2022-09-06T14:57:50;26.40;18.20
8527;DHT22;4301;48.362;8.478;2022-09-06T15:00:19;26.80;21.80
8527;DHT22;4301;48.362;8.478;2022-09-06T15:02:47;27.30;18.20
8527;DHT22;4301;48.362;8.478;2022-09-06T15:05:16;27.50;7.80
8527;DHT22;4301;48.362;8.478;2022-09-06T15:07:43;28.00;2.60
8527;DHT22;4301;48.362;8.478;2022-09-06T15:10:11;28.00;1.00
8527;DHT22;4301;48.362;8.478;2022-09-06T15:12:38;27.90;1.40
8527;DHT22;4301;48.362;8.478;2022-09-06T15:15:06;27.70;4.30
8527;DHT22;4301;48.362;8.478;2022-09-06T15:17:34;27.80;2.00
8527;DHT22;4301;48.362;8.478;2022-09-06T15:20:02;27.90;5.60
8527;DHT22;4301;48.362;8.478;2022-09-06T15:22:31;28.10;1.00
8527;DHT22;4301;48.362;8.478;2022-09-06T15:24:58;28.50;1.00
8527;DHT22;4301;48.362;8.478;2022-09-06T15:27:25;28.50;1.00
8527;DHT22;4301;48.362;8.478;2022-09-06T15:29:53;29.10;1.00
8527;DHT22;4301;48.362;8.478;2022-09-06T15:32:20;29.30;1.00
8527;DHT22;4301;48.362;8.478;2022-09-06T15:34:47;29.50;1.00
8527;DHT22;4301;48.362;8.478;2022-09-06T15:37:14;29.90;1.00
8527;DHT22;4301;48.362;8.478;2022-09-06T15:39:43;30.00;1.00
8527;DHT22;4301;48.362;8.478;2022-09-06T15:42:10;29.90;1.00
8527;DHT22;4301;48.362;8.478;2022-09-06T15:44:37;29.70;1.00
8527;DHT22;4301;48.362;8.478;2022-09-06T15:47:05;29.40;1.00
8527;DHT22;4301;48.362;8.478;2022-09-06T15:49:32;29.20;1.00
8527;DHT22;4301;48.362;8.478;2022-09-06T15:52:02;28.50;1.00
8527;DHT22;4301;48.362;8.478;2022-09-06T15:54:30;27.80;1.00
8527;DHT22;4301;48.362;8.478;2022-09-06T15:57:18;28.10;1.00
8527;DHT22;4301;48.362;8.478;2022-09-06T15:59:45;28.30;1.00
8527;DHT22;4301;48.362;8.478;2022-09-06T16:02:12;28.40;1.00
8527;DHT22;4301;48.362;8.478;2022-09-06T16:04:40;27.70;1.00
8527;DHT22;4301;48.362;8.478;2022-09-06T16:07:08;28.00;1.00
8527;DHT22;4301;48.362;8.478;2022-09-06T16:09:36;28.20;1.00
8527;DHT22;4301;48.362;8.478;2022-09-06T16:12:03;28.20;1.00
8527;DHT22;4301;48.362;8.478;2022-09-06T16:14:32;28.20;1.00
8527;DHT22;4301;48.362;8.478;2022-09-06T16:17:00;28.10;1.00
8527;DHT22;4301;48.362;8.478;2022-09-06T16:19:27;28.10;1.00
8527;DHT22;4301;48.362;8.478;2022-09-06T16:21:55;28.10;1.00
8527;DHT22;4301;48.362;8.478;2022-09-06T16:24:23;28.00;1.00
8527;DHT22;4301;48.362;8.478;2022-09-06T16:26:51;27.70;1.00
8527;DHT22;4301;48.362;8.478;2022-09-06T16:29:18;27.60;1.00
8527;DHT22;4301;48.362;8.478;2022-09-06T16:31:47;27.30;1.00
8527;DHT22;4301;48.362;8.478;2022-09-06T16:34:15;27.20;1.00
8527;DHT22;4301;48.362;8.478;2022-09-06T16:36:42;27.20;1.00
8527;DHT22;4301;48.362;8.478;2022-09-06T16:39:10;27.00;1.00
8527;DHT22;4301;48.362;8.478;2022-09-06T16:41:39;26.50;1.00
8527;DHT22;4301;48.362;8.478;2022-09-06T16:44:07;26.40;1.00
8527;DHT22;4301;48.362;8.478;2022-09-06T16:46:35;26.20;1.00
8527;DHT22;4301;48.362;8.478;2022-09-06T16:49:06;26.00;1.00
8527;DHT22;4301;48.362;8.478;2022-09-06T16:51:33;25.80;1.00